createdAt,value
2018-11-10T00:02:18.370Z,99.90
2018-11-10T00:04:45.725Z,99.90
2018-11-10T00:07:13.061Z,99.90
2018-11-10T00:09:40.390Z,99.90
2018-11-10T00:12:07.712Z,99.90
2018-11-10T00:14:35.044Z,99.90
2018-11-10T00:17:02.361Z,99.90
2018-11-10T00:19:29.724Z,99.90
2018-11-10T00:21:57.202Z,99.90
2018-11-10T00:24:24.518Z,99.90
2018-11-10T00:26:51.825Z,99.90
2018-11-10T00:29:19.164Z,99.90
2018-11-10T00:31:46.490Z,99.90
2018-11-10T00:34:13.832Z,99.90
2018-11-10T00:36:41.149Z,99.90
2018-11-10T00:39:09.028Z,99.90
2018-11-10T00:41:36.356Z,99.90
2018-11-10T00:44:03.932Z,99.90
2018-11-10T00:46:31.269Z,99.90
2018-11-10T00:48:58.617Z,99.90
2018-11-10T00:51:25.978Z,99.90
2018-11-10T00:53:53.316Z,99.90
2018-11-10T00:56:20.721Z,99.90
2018-11-10T00:58:48.402Z,99.90
2018-11-10T01:01:15.765Z,99.90
2018-11-10T01:03:43.158Z,99.90
2018-11-10T01:06:10.489Z,99.90
2018-11-10T01:08:37.833Z,99.90
2018-11-10T01:11:05.221Z,99.90
2018-11-10T01:13:32.529Z,99.90
2018-11-10T01:15:59.889Z,99.90
2018-11-10T01:18:27.218Z,99.90
2018-11-10T01:20:54.532Z,99.90
2018-11-10T01:23:21.893Z,99.90
2018-11-10T01:25:49.220Z,99.90
2018-11-10T01:28:16.552Z,99.90
2018-11-10T01:30:43.884Z,99.90
2018-11-10T01:33:11.249Z,99.90
2018-11-10T01:35:38.557Z,99.90
2018-11-10T01:38:05.904Z,99.90
2018-11-10T01:40:33.227Z,99.90
2018-11-10T01:43:00.519Z,99.90
2018-11-10T01:45:28.819Z,99.90
2018-11-10T01:47:56.111Z,99.90
2018-11-10T01:50:23.432Z,99.90
2018-11-10T01:52:50.783Z,99.90
2018-11-10T01:55:18.103Z,99.90
2018-11-10T01:57:45.384Z,99.90
2018-11-10T02:00:17.886Z,99.90
2018-11-10T02:02:45.815Z,99.90
2018-11-10T02:05:13.389Z,99.90
2018-11-10T02:07:40.685Z,99.90
2018-11-10T02:10:09.122Z,99.90
2018-11-10T02:12:36.518Z,99.90
2018-11-10T02:15:04.140Z,99.90
2018-11-10T02:17:31.679Z,99.90
2018-11-10T02:19:59.055Z,99.90
2018-11-10T02:22:26.399Z,99.90
2018-11-10T02:24:53.748Z,99.90
2018-11-10T02:27:22.132Z,99.90
2018-11-10T02:29:50.816Z,99.90
2018-11-10T02:32:18.600Z,99.90
2018-11-10T02:34:45.947Z,99.90
2018-11-10T02:37:13.861Z,99.90
2018-11-10T02:39:41.317Z,99.90
2018-11-10T02:42:08.838Z,99.90
2018-11-10T02:44:36.206Z,99.90
2018-11-10T02:47:03.652Z,99.90
2018-11-10T02:49:30.968Z,99.90
2018-11-10T02:51:58.320Z,99.90
2018-11-10T02:54:25.659Z,99.90
2018-11-10T02:56:52.990Z,99.90
2018-11-10T02:59:20.341Z,99.90
2018-11-10T03:01:48.025Z,99.90
2018-11-10T03:04:15.536Z,99.90
2018-11-10T03:06:42.873Z,99.90
2018-11-10T03:09:10.196Z,99.90
2018-11-10T03:11:38.229Z,99.90
2018-11-10T03:14:05.720Z,99.90
2018-11-10T03:16:33.132Z,99.90
2018-11-10T03:19:00.453Z,99.90
2018-11-10T03:21:27.772Z,99.90
2018-11-10T03:23:55.117Z,99.90
2018-11-10T03:26:22.521Z,99.90
2018-11-10T03:28:49.845Z,99.90
2018-11-10T03:31:17.196Z,99.90
2018-11-10T03:33:44.498Z,99.90
2018-11-10T03:36:11.908Z,99.90
2018-11-10T03:38:39.437Z,99.90
2018-11-10T03:41:06.800Z,99.90
2018-11-10T03:43:34.091Z,99.90
2018-11-10T03:46:01.374Z,99.90
2018-11-10T03:48:28.688Z,99.90
2018-11-10T03:50:55.967Z,99.90
2018-11-10T03:53:23.280Z,99.90
2018-11-10T03:55:50.564Z,99.90
2018-11-10T03:58:18.025Z,99.90
2018-11-10T04:00:45.336Z,99.90
2018-11-10T04:03:12.635Z,99.90
2018-11-10T04:05:40.562Z,99.90
2018-11-10T04:08:07.865Z,99.90
2018-11-10T04:10:35.156Z,99.90
2018-11-10T04:13:02.493Z,99.90
2018-11-10T04:15:29.845Z,99.90
2018-11-10T04:17:57.159Z,99.90
2018-11-10T04:20:24.472Z,99.90
2018-11-10T04:22:51.812Z,99.90
2018-11-10T04:25:19.124Z,99.90
2018-11-10T04:27:46.427Z,99.90
2018-11-10T04:30:13.770Z,99.90
2018-11-10T04:32:41.097Z,99.90
2018-11-10T04:35:08.477Z,99.90
2018-11-10T04:37:36.153Z,99.90
2018-11-10T04:40:03.824Z,99.90
2018-11-10T04:42:31.116Z,99.90
2018-11-10T04:44:58.440Z,99.90
2018-11-10T04:47:25.756Z,99.90
2018-11-10T04:49:53.174Z,99.90
2018-11-10T04:52:20.480Z,99.90
2018-11-10T04:54:47.779Z,99.90
2018-11-10T04:57:15.062Z,99.90
2018-11-10T04:59:42.368Z,99.90
2018-11-10T05:02:09.627Z,99.90
2018-11-10T05:04:37.918Z,99.90
2018-11-10T05:07:05.762Z,99.90
2018-11-10T05:09:33.129Z,99.90
2018-11-10T05:12:00.455Z,99.90
2018-11-10T05:14:27.908Z,99.90
2018-11-10T05:16:55.234Z,99.90
2018-11-10T05:19:22.575Z,99.90
2018-11-10T05:21:49.898Z,99.90
2018-11-10T05:24:17.264Z,99.90
2018-11-10T05:26:44.594Z,99.90
2018-11-10T05:29:11.985Z,99.90
2018-11-10T05:31:39.297Z,99.90
2018-11-10T05:34:06.849Z,99.90
2018-11-10T05:36:34.187Z,99.90
2018-11-10T05:39:01.529Z,99.90
2018-11-10T05:41:29.597Z,99.90
2018-11-10T05:43:57.286Z,99.90
2018-11-10T05:46:31.489Z,99.90
2018-11-10T05:48:58.820Z,99.90
2018-11-10T05:51:26.140Z,99.90
2018-11-10T05:53:53.481Z,99.90
2018-11-10T05:56:20.888Z,99.90
2018-11-10T05:58:48.237Z,99.90
2018-11-10T06:01:15.553Z,99.90
2018-11-10T06:03:42.893Z,99.90
2018-11-10T06:06:10.205Z,99.90
2018-11-10T06:08:37.532Z,99.90
2018-11-10T06:11:04.969Z,99.90
2018-11-10T06:13:32.300Z,99.90
2018-11-10T06:15:59.710Z,99.90
2018-11-10T06:18:27.084Z,99.90
2018-11-10T06:20:54.424Z,99.90
2018-11-10T06:23:21.769Z,99.90
2018-11-10T06:25:49.120Z,99.90
2018-11-10T06:28:16.456Z,99.90
2018-11-10T06:30:43.848Z,99.90
2018-11-10T06:33:11.161Z,99.90
2018-11-10T06:35:38.536Z,99.90
2018-11-10T06:38:05.945Z,99.90
2018-11-10T06:40:33.275Z,99.90
2018-11-10T06:43:00.602Z,99.90
2018-11-10T06:45:27.929Z,99.90
2018-11-10T06:47:55.285Z,99.90
2018-11-10T06:50:23.772Z,99.90
2018-11-10T06:52:51.141Z,99.90
2018-11-10T06:55:18.943Z,99.90
2018-11-10T06:57:47.296Z,99.90
2018-11-10T07:00:15.176Z,99.90
2018-11-10T07:02:42.796Z,99.90
2018-11-10T07:05:10.669Z,99.90
2018-11-10T07:07:39.842Z,99.90
2018-11-10T07:10:07.728Z,99.90
2018-11-10T07:12:35.276Z,99.90
2018-11-10T07:15:03.008Z,99.90
2018-11-10T07:17:30.404Z,99.90
2018-11-10T07:19:57.712Z,99.90
2018-11-10T07:22:27.189Z,99.90
2018-11-10T07:24:54.621Z,99.90
2018-11-10T07:27:21.953Z,99.90
2018-11-10T07:29:50.321Z,99.90
2018-11-10T07:32:18.353Z,99.90
2018-11-10T07:34:45.705Z,99.90
2018-11-10T07:37:13.124Z,99.90
2018-11-10T07:39:40.479Z,99.90
2018-11-10T07:42:07.805Z,99.90
2018-11-10T07:44:35.152Z,99.90
2018-11-10T07:47:02.565Z,99.90
2018-11-10T07:49:29.972Z,99.90
2018-11-10T07:51:57.253Z,99.90
2018-11-10T07:54:24.616Z,99.90
2018-11-10T07:56:51.964Z,99.90
2018-11-10T07:59:19.309Z,99.90
2018-11-10T08:01:46.693Z,99.90
2018-11-10T08:04:14.085Z,99.90
2018-11-10T08:06:41.405Z,99.90
2018-11-10T08:09:09.468Z,99.90
2018-11-10T08:11:36.896Z,99.90
2018-11-10T08:14:04.434Z,99.90
2018-11-10T08:16:31.743Z,99.90
2018-11-10T08:18:59.067Z,99.90
2018-11-10T08:21:26.547Z,99.90
2018-11-10T08:23:53.886Z,99.90
2018-11-10T08:26:21.265Z,99.90
2018-11-10T08:28:48.592Z,99.90
2018-11-10T08:31:15.977Z,99.90
2018-11-10T08:33:43.304Z,99.90
2018-11-10T08:36:10.640Z,99.90
2018-11-10T08:38:37.987Z,99.90
2018-11-10T08:41:05.733Z,99.90
2018-11-10T08:43:33.764Z,99.90
2018-11-10T08:46:01.107Z,99.90
2018-11-10T08:48:28.449Z,99.90
2018-11-10T08:50:56.789Z,99.90
2018-11-10T08:53:24.100Z,99.90
2018-11-10T08:55:51.592Z,99.90
2018-11-10T08:58:18.956Z,99.90
2018-11-10T09:00:46.306Z,99.90
2018-11-10T09:03:13.641Z,99.90
2018-11-10T09:05:42.036Z,99.90
2018-11-10T09:08:09.362Z,99.90
2018-11-10T09:10:36.681Z,99.90
2018-11-10T09:13:04.180Z,99.90
2018-11-10T09:15:31.501Z,99.90
2018-11-10T09:17:58.880Z,99.90
2018-11-10T09:20:26.201Z,99.90
2018-11-10T09:22:53.516Z,99.90
2018-11-10T09:25:20.905Z,99.90
2018-11-10T09:27:48.228Z,99.90
2018-11-10T09:30:16.634Z,99.90
2018-11-10T09:32:43.962Z,99.90
2018-11-10T09:35:12.324Z,99.90
2018-11-10T09:37:39.624Z,99.90
2018-11-10T09:40:08.969Z,99.90
2018-11-10T09:42:36.469Z,99.90
2018-11-10T09:45:05.138Z,99.90
2018-11-10T09:47:32.448Z,99.90
2018-11-10T09:49:59.799Z,99.90
2018-11-10T09:52:27.155Z,99.90
2018-11-10T09:54:54.513Z,99.90
2018-11-10T09:57:22.030Z,99.90
2018-11-10T09:59:49.338Z,99.90
2018-11-10T10:02:17.143Z,99.90
2018-11-10T10:04:44.173Z,99.90
2018-11-10T10:07:11.969Z,99.90
2018-11-10T10:09:39.343Z,99.90
2018-11-10T10:12:06.692Z,99.90
2018-11-10T10:14:34.058Z,99.90
2018-11-10T10:17:01.400Z,99.90
2018-11-10T10:19:28.740Z,99.90
2018-11-10T10:21:57.116Z,99.90
2018-11-10T10:24:24.412Z,99.90
2018-11-10T10:26:51.784Z,99.90
2018-11-10T10:29:19.122Z,99.90
2018-11-10T10:31:46.491Z,99.90
2018-11-10T10:34:13.845Z,99.90
2018-11-10T10:36:41.202Z,99.90
2018-11-10T10:39:09.969Z,99.90
2018-11-10T10:41:38.407Z,99.90
2018-11-10T10:44:06.354Z,99.90
2018-11-10T10:46:33.706Z,99.90
2018-11-10T10:49:01.160Z,99.90
2018-11-10T10:51:28.404Z,99.90
2018-11-10T10:53:55.728Z,99.90
2018-11-10T10:56:23.085Z,99.90
2018-11-10T10:58:50.601Z,99.90
2018-11-10T11:01:24.736Z,99.90
2018-11-10T11:03:57.708Z,99.90
2018-11-10T11:06:25.046Z,99.90
2018-11-10T11:08:52.415Z,99.90
2018-11-10T11:11:19.726Z,99.90
2018-11-10T11:13:47.093Z,99.90
2018-11-10T11:16:14.436Z,99.90
2018-11-10T11:18:41.768Z,99.90
2018-11-10T11:21:09.115Z,99.90
2018-11-10T11:23:36.460Z,99.90
2018-11-10T11:26:04.793Z,99.90
2018-11-10T11:28:32.109Z,99.90
2018-11-10T11:30:59.457Z,99.90
2018-11-10T11:33:26.788Z,99.90
2018-11-10T11:35:54.114Z,99.90
2018-11-10T11:38:21.449Z,99.90
2018-11-10T11:40:48.796Z,99.90
2018-11-10T11:43:16.148Z,99.90
2018-11-10T11:45:46.100Z,99.90
2018-11-10T11:48:13.438Z,99.90
2018-11-10T11:50:40.784Z,99.90
2018-11-10T11:53:08.107Z,99.90
2018-11-10T11:55:36.461Z,99.90
2018-11-10T11:58:04.045Z,99.90
2018-11-10T12:00:31.309Z,99.90
2018-11-10T12:02:58.743Z,99.90
2018-11-10T12:05:26.069Z,99.90
2018-11-10T12:07:53.404Z,99.90
2018-11-10T12:10:20.725Z,99.90
2018-11-10T12:12:48.050Z,99.90
2018-11-10T12:15:16.193Z,99.90
2018-11-10T12:17:43.558Z,99.90
2018-11-10T12:20:12.168Z,99.90
2018-11-10T12:22:39.536Z,99.90
2018-11-10T12:25:07.589Z,99.90
2018-11-10T12:27:34.897Z,99.90
2018-11-10T12:30:02.301Z,99.90
2018-11-10T12:32:29.629Z,99.90
2018-11-10T12:34:56.956Z,99.90
2018-11-10T12:37:24.280Z,99.90
2018-11-10T12:39:51.610Z,99.90
2018-11-10T12:42:18.951Z,99.90
2018-11-10T12:44:46.412Z,99.90
2018-11-10T12:47:13.764Z,99.90
2018-11-10T12:49:41.093Z,99.90
2018-11-10T12:52:08.416Z,99.90
2018-11-10T12:54:35.773Z,99.90
2018-11-10T12:57:03.356Z,99.90
2018-11-10T12:59:30.755Z,99.90
2018-11-10T13:01:58.084Z,99.90
2018-11-10T13:04:25.404Z,99.90
2018-11-10T13:06:55.705Z,99.90
2018-11-10T13:09:23.112Z,99.90
2018-11-10T13:11:50.546Z,99.90
2018-11-10T13:14:17.833Z,99.90
2018-11-10T13:16:45.141Z,99.90
2018-11-10T13:19:12.473Z,99.90
2018-11-10T13:21:39.828Z,99.90
2018-11-10T13:24:07.461Z,99.90
2018-11-10T13:26:34.729Z,99.90
2018-11-10T13:29:02.080Z,99.90
2018-11-10T13:31:29.532Z,99.30
2018-11-10T13:33:56.784Z,98.80
2018-11-10T13:36:24.445Z,99.00
2018-11-10T13:38:51.821Z,99.30
2018-11-10T13:41:19.118Z,99.50
2018-11-10T13:43:46.537Z,99.30
2018-11-10T13:46:13.833Z,99.50
2018-11-10T13:48:41.162Z,98.10
2018-11-10T13:51:08.807Z,97.40
2018-11-10T13:53:36.105Z,97.80
2018-11-10T13:56:03.692Z,97.40
2018-11-10T13:58:31.033Z,97.80
2018-11-10T14:00:58.406Z,96.60
2018-11-10T14:03:25.749Z,96.70
2018-11-10T14:05:53.047Z,96.30
2018-11-10T14:08:20.375Z,96.40
2018-11-10T14:10:47.718Z,96.70
2018-11-10T14:13:15.056Z,96.90
2018-11-10T14:15:42.416Z,96.80
2018-11-10T14:18:09.765Z,96.30
2018-11-10T14:20:37.133Z,95.80
2018-11-10T14:23:04.601Z,96.10
2018-11-10T14:25:31.934Z,95.70
2018-11-10T14:27:59.379Z,96.80
2018-11-10T14:30:26.664Z,96.10
2018-11-10T14:32:54.964Z,96.00
2018-11-10T14:35:22.910Z,96.40
2018-11-10T14:37:50.220Z,95.60
2018-11-10T14:40:18.465Z,95.90
2018-11-10T14:42:45.989Z,95.80
2018-11-10T14:45:14.697Z,95.50
2018-11-10T14:47:42.550Z,95.80
2018-11-10T14:50:14.133Z,95.20
2018-11-10T14:52:41.903Z,95.10
2018-11-10T14:55:09.940Z,94.70
2018-11-10T14:57:37.460Z,94.40
2018-11-10T15:00:09.679Z,94.40
2018-11-10T15:02:37.038Z,94.80
2018-11-10T15:05:05.028Z,95.60
2018-11-10T15:07:32.362Z,95.70
2018-11-10T15:09:59.685Z,95.80
2018-11-10T15:12:27.012Z,96.00
2018-11-10T15:14:54.341Z,96.10
2018-11-10T15:17:21.739Z,96.40
2018-11-10T15:19:49.037Z,96.30
2018-11-10T15:22:16.426Z,96.40
2018-11-10T15:24:43.744Z,96.70
2018-11-10T15:27:11.083Z,97.60
2018-11-10T15:29:38.428Z,99.30
2018-11-10T15:32:05.791Z,99.90
2018-11-10T15:34:33.120Z,99.90
2018-11-10T15:37:00.473Z,99.90
2018-11-10T15:39:27.880Z,99.90
2018-11-10T15:41:55.244Z,99.90
2018-11-10T15:44:22.917Z,99.90
2018-11-10T15:46:50.244Z,99.90
2018-11-10T15:49:17.688Z,99.90
2018-11-10T15:51:44.991Z,99.90
2018-11-10T15:54:12.332Z,99.90
2018-11-10T15:56:39.672Z,99.90
2018-11-10T15:59:07.492Z,99.90
2018-11-10T16:01:34.833Z,99.90
2018-11-10T16:04:02.164Z,99.90
2018-11-10T16:06:30.552Z,99.90
2018-11-10T16:08:57.915Z,99.90
2018-11-10T16:11:25.222Z,99.90
2018-11-10T16:13:52.604Z,99.90
2018-11-10T16:16:19.953Z,99.90
2018-11-10T16:18:47.288Z,99.90
2018-11-10T16:21:14.612Z,99.90
2018-11-10T16:23:41.941Z,99.90
2018-11-10T16:26:09.252Z,99.90
2018-11-10T16:28:36.720Z,99.90
2018-11-10T16:31:04.221Z,99.90
2018-11-10T16:33:31.616Z,99.90
2018-11-10T16:35:58.960Z,99.90
2018-11-10T16:38:26.297Z,99.90
2018-11-10T16:40:53.608Z,99.90
2018-11-10T16:43:20.980Z,99.90
2018-11-10T16:45:48.330Z,99.90
2018-11-10T16:48:15.631Z,99.90
2018-11-10T16:50:42.949Z,99.90
2018-11-10T16:53:10.314Z,99.90
2018-11-10T16:55:37.636Z,99.90
2018-11-10T16:58:05.360Z,99.90
2018-11-10T17:00:32.844Z,99.90
2018-11-10T17:03:00.177Z,99.90
2018-11-10T17:05:27.505Z,99.90
2018-11-10T17:07:54.892Z,99.90
2018-11-10T17:10:23.152Z,99.90
2018-11-10T17:12:50.537Z,99.90
2018-11-10T17:15:17.881Z,99.90
2018-11-10T17:17:45.270Z,99.90
2018-11-10T17:20:14.984Z,99.90
2018-11-10T17:22:42.523Z,99.90
2018-11-10T17:25:10.520Z,99.90
2018-11-10T17:27:38.272Z,99.90
2018-11-10T17:30:08.763Z,99.90
2018-11-10T17:32:36.068Z,99.90
2018-11-10T17:35:03.514Z,99.90
2018-11-10T17:37:30.906Z,99.90
2018-11-10T17:39:58.429Z,99.90
2018-11-10T17:42:25.628Z,99.90
2018-11-10T17:44:52.947Z,99.90
2018-11-10T17:47:20.281Z,99.90
2018-11-10T17:49:47.608Z,99.90
2018-11-10T17:52:15.020Z,99.90
2018-11-10T17:54:42.412Z,99.90
2018-11-10T17:57:09.704Z,99.90
2018-11-10T17:59:37.033Z,99.90
2018-11-10T18:02:04.782Z,99.90
2018-11-10T18:04:32.144Z,99.90
2018-11-10T18:06:59.473Z,99.90
2018-11-10T18:09:26.844Z,99.90
2018-11-10T18:11:54.160Z,99.90
2018-11-10T18:14:21.485Z,99.90
2018-11-10T18:16:48.811Z,99.90
2018-11-10T18:19:16.157Z,99.90
2018-11-10T18:21:43.499Z,99.90
2018-11-10T18:24:10.860Z,99.90
2018-11-10T18:26:38.213Z,99.90
2018-11-10T18:29:06.532Z,99.90
2018-11-10T18:31:33.851Z,99.90
2018-11-10T18:34:01.277Z,99.90
2018-11-10T18:36:28.626Z,99.90
2018-11-10T18:38:55.960Z,99.90
2018-11-10T18:41:23.285Z,99.90
2018-11-10T18:43:50.605Z,99.90
2018-11-10T18:46:17.968Z,99.90
2018-11-10T18:48:45.346Z,99.90
2018-11-10T18:51:12.666Z,99.90
2018-11-10T18:53:39.969Z,99.90
2018-11-10T18:56:07.329Z,99.90
2018-11-10T18:58:34.687Z,99.90
2018-11-10T19:01:02.534Z,99.90
2018-11-10T19:03:29.940Z,99.90
2018-11-10T19:05:58.269Z,99.90
2018-11-10T19:08:25.647Z,99.90
2018-11-10T19:10:53.004Z,99.90
2018-11-10T19:13:20.332Z,99.90
2018-11-10T19:15:47.686Z,99.90
2018-11-10T19:18:15.034Z,99.90
2018-11-10T19:20:42.400Z,99.90
2018-11-10T19:23:09.865Z,99.90
2018-11-10T19:25:37.136Z,99.90
2018-11-10T19:28:05.377Z,99.90
2018-11-10T19:30:32.733Z,99.90
2018-11-10T19:33:00.062Z,99.90
2018-11-10T19:35:27.393Z,99.90
2018-11-10T19:37:55.694Z,99.90
2018-11-10T19:40:23.892Z,99.90
2018-11-10T19:42:51.213Z,99.90
2018-11-10T19:45:18.751Z,99.90
2018-11-10T19:47:46.590Z,99.90
2018-11-10T19:50:14.294Z,99.90
2018-11-10T19:52:41.721Z,99.90
2018-11-10T19:55:11.385Z,99.90
2018-11-10T19:57:38.740Z,99.90
2018-11-10T20:00:12.041Z,99.90
2018-11-10T20:02:39.374Z,99.90
2018-11-10T20:05:07.328Z,99.90
2018-11-10T20:07:34.675Z,99.90
2018-11-10T20:10:02.089Z,99.90
2018-11-10T20:12:29.404Z,99.90
2018-11-10T20:14:56.672Z,99.90
2018-11-10T20:17:23.919Z,99.90
2018-11-10T20:19:51.816Z,99.90
2018-11-10T20:22:19.203Z,99.90
2018-11-10T20:24:46.565Z,99.90
2018-11-10T20:27:13.905Z,99.90
2018-11-10T20:29:41.221Z,99.90
2018-11-10T20:32:08.565Z,99.90
2018-11-10T20:34:38.285Z,99.90
2018-11-10T20:37:05.705Z,99.90
2018-11-10T20:39:33.041Z,99.90
2018-11-10T20:42:00.378Z,99.90
2018-11-10T20:44:28.724Z,99.90
2018-11-10T20:46:56.080Z,99.90
2018-11-10T20:49:23.424Z,99.90
2018-11-10T20:51:50.761Z,99.90
2018-11-10T20:54:18.137Z,99.90
2018-11-10T20:56:46.456Z,99.90
2018-11-10T20:59:14.853Z,99.90
2018-11-10T21:01:42.180Z,99.90
2018-11-10T21:04:09.559Z,99.90
2018-11-10T21:06:36.878Z,99.90
2018-11-10T21:09:07.252Z,99.90
2018-11-10T21:11:34.618Z,99.90
2018-11-10T21:14:01.965Z,99.90
2018-11-10T21:16:29.409Z,99.90
2018-11-10T21:18:56.724Z,99.90
2018-11-10T21:21:24.234Z,99.90
2018-11-10T21:23:51.576Z,99.90
2018-11-10T21:26:18.913Z,99.90
2018-11-10T21:28:47.085Z,99.90
2018-11-10T21:31:14.456Z,99.90
2018-11-10T21:33:41.901Z,99.90
2018-11-10T21:36:09.173Z,99.90
2018-11-10T21:38:36.652Z,99.90
2018-11-10T21:41:04.321Z,99.90
2018-11-10T21:43:31.646Z,99.90
2018-11-10T21:45:58.987Z,99.90
2018-11-10T21:48:26.318Z,99.90
2018-11-10T21:50:53.641Z,99.90
2018-11-10T21:53:20.987Z,99.90
2018-11-10T21:55:48.332Z,99.90
2018-11-10T21:58:15.699Z,99.90
2018-11-10T22:00:43.141Z,99.90
2018-11-10T22:03:10.481Z,99.90
2018-11-10T22:05:37.820Z,99.90
2018-11-10T22:08:05.175Z,99.90
2018-11-10T22:10:32.528Z,99.90
2018-11-10T22:12:59.872Z,99.90
2018-11-10T22:15:28.232Z,99.90
2018-11-10T22:17:55.591Z,99.90
2018-11-10T22:20:23.896Z,99.90
2018-11-10T22:22:51.269Z,99.90
2018-11-10T22:25:18.645Z,99.90
2018-11-10T22:27:49.348Z,99.90
2018-11-10T22:30:17.832Z,99.90
2018-11-10T22:32:45.904Z,99.90
2018-11-10T22:35:13.270Z,99.90
2018-11-10T22:37:40.705Z,99.90
2018-11-10T22:40:09.888Z,99.90
2018-11-10T22:42:37.880Z,99.90
2018-11-10T22:45:06.443Z,99.90
2018-11-10T22:47:33.808Z,99.90
2018-11-10T22:50:01.701Z,99.90
2018-11-10T22:52:29.061Z,99.90
2018-11-10T22:54:56.732Z,99.90
2018-11-10T22:57:24.153Z,99.90
2018-11-10T22:59:51.469Z,99.90
2018-11-10T23:02:18.936Z,99.90
2018-11-10T23:04:46.264Z,99.90
2018-11-10T23:07:13.640Z,99.90
2018-11-10T23:09:40.989Z,99.90
2018-11-10T23:12:08.326Z,99.90
2018-11-10T23:14:35.713Z,99.90
2018-11-10T23:17:03.061Z,99.90
2018-11-10T23:19:30.314Z,99.90
2018-11-10T23:21:58.945Z,99.90
2018-11-10T23:24:26.450Z,99.90
2018-11-10T23:26:53.727Z,99.90
2018-11-10T23:29:21.053Z,99.90
2018-11-10T23:31:48.413Z,99.90
2018-11-10T23:34:15.765Z,99.90
2018-11-10T23:36:43.083Z,99.90
2018-11-10T23:39:11.821Z,99.90
2018-11-10T23:41:39.699Z,99.90
2018-11-10T23:44:07.022Z,99.90
2018-11-10T23:46:34.329Z,99.90
2018-11-10T23:49:01.641Z,99.90
2018-11-10T23:51:29.015Z,99.90
2018-11-10T23:53:56.373Z,99.90
2018-11-10T23:56:23.697Z,99.90
2018-11-10T23:58:51.063Z,99.90
